createdAt,value
2023-01-23T00:00:08.730Z,15
2023-01-23T00:05:11.082Z,15.5
2023-01-23T00:10:13.241Z,14.5
2023-01-23T00:15:15.476Z,15.9
2023-01-23T00:20:17.927Z,13.7
2023-01-23T00:25:21.513Z,14.4
2023-01-23T00:30:23.722Z,14.1
2023-01-23T00:35:26.007Z,14.1
2023-01-23T00:40:28.502Z,14.3
2023-01-23T00:45:30.667Z,13.1
2023-01-23T00:50:32.877Z,13.1
2023-01-23T00:55:35.011Z,12.5
2023-01-23T01:00:37.202Z,12.1
2023-01-23T01:05:39.500Z,12.9
2023-01-23T01:10:41.679Z,14.4
2023-01-23T01:15:43.986Z,12.9
2023-01-23T01:20:46.422Z,12
2023-01-23T01:25:48.556Z,12.5
2023-01-23T01:30:50.924Z,12
2023-01-23T01:35:53.719Z,12.6
2023-01-23T01:40:55.787Z,12.8
2023-01-23T01:45:58.021Z,12.3
2023-01-23T01:51:00.204Z,12.2
2023-01-23T01:56:02.379Z,12
2023-01-23T02:01:04.627Z,11.8
2023-01-23T02:06:07.180Z,12.4
2023-01-23T02:11:09.348Z,11.7
2023-01-23T02:16:11.522Z,12.7
2023-01-23T02:21:13.903Z,11.7
2023-01-23T02:26:16.083Z,12.6
2023-01-23T02:31:18.342Z,12.5
2023-01-23T02:36:21.205Z,11.8
2023-01-23T02:41:23.382Z,22
2023-01-23T02:46:23.886Z,12.8
2023-01-23T02:51:26.007Z,12
2023-01-23T02:56:28.197Z,12.2
2023-01-23T03:01:30.393Z,12.7
2023-01-23T03:06:32.961Z,12.5
2023-01-23T03:11:35.082Z,12.6
2023-01-23T03:16:38.361Z,12
2023-01-23T03:21:41.202Z,13.3
2023-01-23T03:26:43.569Z,12.4
2023-01-23T03:31:45.783Z,12
2023-01-23T03:36:48.156Z,12.1
2023-01-23T03:41:50.516Z,12.4
2023-01-23T03:46:52.653Z,11.9
2023-01-23T03:51:54.743Z,11.2
2023-01-23T03:56:56.790Z,11.2
2023-01-23T04:01:59.020Z,11.2
2023-01-23T04:07:01.260Z,11.5
2023-01-23T04:12:03.473Z,12.7
2023-01-23T04:17:05.600Z,11.9
2023-01-23T04:22:07.920Z,11.8
2023-01-23T04:27:10.461Z,11.7
2023-01-23T04:32:12.781Z,12.2
2023-01-23T04:37:14.882Z,11.4
2023-01-23T04:42:16.974Z,12.3
2023-01-23T04:47:19.158Z,13.1
2023-01-23T04:52:21.347Z,12.2
2023-01-23T04:57:23.436Z,11.3
2023-01-23T05:02:25.834Z,11.8
2023-01-23T05:07:28.070Z,12.9
2023-01-23T05:12:30.131Z,13.6
2023-01-23T05:17:32.225Z,14.7
2023-01-23T05:22:34.378Z,13.2
2023-01-23T05:27:36.480Z,13.2
2023-01-23T05:32:38.569Z,13.9
2023-01-23T05:37:40.773Z,16.5
2023-01-23T05:42:43.081Z,12.5
2023-01-23T05:47:51.344Z,12.7
2023-01-23T05:52:54.044Z,13.3
2023-01-23T05:57:56.219Z,12.5
2023-01-23T06:02:58.607Z,14.6
2023-01-23T06:08:01.181Z,13.4
2023-01-23T06:13:03.169Z,15
2023-01-23T06:18:05.360Z,13.7
2023-01-23T06:23:07.602Z,15.8
2023-01-23T06:28:09.718Z,15.2
2023-01-23T06:33:11.838Z,14.7
2023-01-23T06:38:14.376Z,14.4
2023-01-23T06:43:16.467Z,22
2023-01-23T06:48:18.739Z,14.2
2023-01-23T06:53:21.430Z,13.5
2023-01-23T06:58:23.603Z,12.3
2023-01-23T07:03:25.789Z,13.3
2023-01-23T07:08:28.096Z,12.2
2023-01-23T07:13:30.495Z,15.3
2023-01-23T07:18:32.662Z,11.6
2023-01-23T07:23:34.897Z,11.2
2023-01-23T07:28:37.142Z,11.1
2023-01-23T07:33:39.360Z,11.3
2023-01-23T07:38:41.675Z,12.8
2023-01-23T07:43:44.081Z,10.7
2023-01-23T07:48:46.613Z,9.6
2023-01-23T07:53:48.762Z,9.3
2023-01-23T07:58:51.612Z,10.8
2023-01-23T08:03:58.040Z,9.4
2023-01-23T08:09:01.224Z,15
2023-01-23T08:14:03.375Z,7.7
2023-01-23T08:19:05.800Z,7
2023-01-23T08:24:08.301Z,6.3
2023-01-23T08:29:10.476Z,6.7
2023-01-23T08:34:12.605Z,6.1
2023-01-23T08:39:14.881Z,5.2
2023-01-23T08:44:17.190Z,5.6
2023-01-23T08:49:19.503Z,5.2
2023-01-23T08:54:22.049Z,5.5
2023-01-23T08:59:24.758Z,6.3
2023-01-23T09:04:27.175Z,9.2
2023-01-23T09:09:29.524Z,5.9
2023-01-23T09:14:31.911Z,6.4
2023-01-23T09:19:34.114Z,5.2
2023-01-23T09:24:40.459Z,6.5
2023-01-23T09:29:42.919Z,7
2023-01-23T09:34:45.145Z,6.1
2023-01-23T09:39:47.545Z,5
2023-01-23T09:44:49.678Z,4.9
2023-01-23T09:49:51.696Z,6.3
2023-01-23T09:54:53.678Z,6.1
2023-01-23T10:00:00.059Z,6
2023-01-23T10:05:03.145Z,5.3
2023-01-23T10:10:06.998Z,4.8
2023-01-23T10:15:09.381Z,5.6
2023-01-23T10:20:11.359Z,4.8
2023-01-23T10:25:13.460Z,4.6
2023-01-23T10:30:15.381Z,5.2
2023-01-23T10:35:17.759Z,4.4
2023-01-23T10:40:21.871Z,5.3
2023-01-23T10:45:24.278Z,4.6
2023-01-23T10:50:26.220Z,9.9
2023-01-23T10:55:26.655Z,4.7
2023-01-23T11:00:28.677Z,4.2
2023-01-23T11:05:31.051Z,4.4
2023-01-23T11:10:33.584Z,5.1
2023-01-23T11:15:35.630Z,4.8
2023-01-23T11:20:37.973Z,4.7
2023-01-23T11:25:40.053Z,5.2
2023-01-23T11:30:42.234Z,4.9
2023-01-23T11:35:45.160Z,6.3
2023-01-23T11:40:47.086Z,4.5
2023-01-23T11:45:49.100Z,4.9
2023-01-23T11:50:55.131Z,4.5
2023-01-23T11:55:57.866Z,5.4
2023-01-23T12:00:59.919Z,5.1
2023-01-23T12:06:18.472Z,5.1
2023-01-23T12:11:02.199Z,5.9
2023-01-23T12:16:04.226Z,6.2
2023-01-23T12:21:06.400Z,5.4
2023-01-23T12:26:08.650Z,4.5
2023-01-23T12:31:10.951Z,6
2023-01-23T12:36:13.656Z,5.3
2023-01-23T12:41:15.619Z,5.4
2023-01-23T12:46:17.627Z,6.5
2023-01-23T12:51:19.692Z,5.3
2023-01-23T12:56:21.874Z,5.6
2023-01-23T13:01:23.953Z,5.7
2023-01-23T13:06:26.181Z,6.8
2023-01-23T13:11:28.780Z,6.2
2023-01-23T13:16:31.064Z,6.4
2023-01-23T13:21:33.835Z,5.1
2023-01-23T13:26:36.030Z,5.1
2023-01-23T13:31:38.256Z,6.1
2023-01-23T13:36:41.473Z,5.8
2023-01-23T13:41:43.626Z,6.2
2023-01-23T13:46:45.725Z,5.1
2023-01-23T13:51:47.963Z,5.4
2023-01-23T13:56:49.964Z,6.1
2023-01-23T14:01:51.961Z,6.5
2023-01-23T14:06:53.842Z,5.1
2023-01-23T14:11:56.217Z,5.9
2023-01-23T14:16:59.319Z,7.9
2023-01-23T14:22:02.178Z,5.8
2023-01-23T14:27:07.717Z,6.4
2023-01-23T14:32:06.542Z,7.5
2023-01-23T14:37:08.830Z,6
2023-01-23T14:42:16.595Z,6.8
2023-01-23T14:47:15.196Z,6.6
2023-01-23T14:52:17.368Z,27.8
2023-01-23T14:57:20.004Z,8.4
2023-01-23T15:02:22.263Z,7.3
2023-01-23T15:07:25.043Z,6.3
2023-01-23T15:12:27.334Z,6.8
2023-01-23T15:17:29.413Z,6.5
2023-01-23T15:22:31.575Z,7.3
2023-01-23T15:27:33.945Z,7.5
2023-01-23T15:32:36.137Z,8
2023-01-23T15:37:38.387Z,9.5
2023-01-23T15:42:40.533Z,10.2
2023-01-23T15:47:42.729Z,10.2
2023-01-23T15:52:44.896Z,26.3
2023-01-23T15:57:47.513Z,12.1
2023-01-23T16:02:56.496Z,11.2
2023-01-23T16:07:49.970Z,10.9
2023-01-23T16:12:52.652Z,10.1
2023-01-23T16:17:54.829Z,12.4
2023-01-23T16:22:57.736Z,16
2023-01-23T16:28:05.692Z,14
2023-01-23T16:33:08.505Z,10.8
2023-01-23T16:38:10.668Z,12.8
2023-01-23T16:43:12.800Z,13.1
2023-01-23T16:48:25.623Z,11.2
2023-01-23T16:53:20.705Z,25.3
2023-01-23T16:58:22.710Z,12.3
2023-01-23T17:03:25.062Z,10.8
2023-01-23T17:08:27.955Z,11.5
2023-01-23T17:18:31.334Z,9.9
2023-01-23T17:23:33.304Z,11.6
2023-01-23T17:28:35.700Z,13.2
2023-01-23T17:33:37.842Z,16.6
2023-01-23T17:38:40.180Z,15.7
2023-01-23T17:43:42.304Z,13.7
2023-01-23T17:48:44.656Z,16.5
2023-01-23T17:53:46.708Z,16.7
2023-01-23T17:58:48.825Z,19.5
2023-01-23T18:03:50.829Z,17.7
2023-01-23T18:08:52.902Z,16.2
2023-01-23T18:13:55.184Z,19.7
2023-01-23T18:19:00.332Z,20.4
2023-01-23T18:24:02.344Z,22.1
2023-01-23T18:29:06.344Z,18.5
2023-01-23T18:34:08.360Z,25.4
2023-01-23T18:39:10.386Z,24.3
2023-01-23T18:44:12.579Z,16.2
2023-01-23T18:49:18.949Z,17
2023-01-23T18:54:24.660Z,14.7
2023-01-23T18:59:27.014Z,12.4
2023-01-23T19:04:29.070Z,12.9
2023-01-23T19:09:31.583Z,13.2
2023-01-23T19:14:33.693Z,14.9
2023-01-23T19:19:35.919Z,13.9
2023-01-23T19:24:37.985Z,13.6
2023-01-23T19:29:40.354Z,14.1
2023-01-23T19:34:42.993Z,13.7
2023-01-23T19:39:45.076Z,15.5
2023-01-23T19:44:47.291Z,14.7
2023-01-23T19:49:52.308Z,13.7
2023-01-23T19:54:56.123Z,14.5
2023-01-23T19:59:58.375Z,13.7
2023-01-23T20:05:00.543Z,16.1
2023-01-23T20:10:02.976Z,13.8
2023-01-23T20:15:05.833Z,15.1
2023-01-23T20:20:08.607Z,14.2
2023-01-23T20:25:10.800Z,14.3
2023-01-23T20:30:12.779Z,13.9
2023-01-23T20:35:15.457Z,15.4
2023-01-23T20:40:18.880Z,15.1
2023-01-23T20:45:23.283Z,16
2023-01-23T20:50:31.774Z,16.4
2023-01-23T20:55:34.134Z,14.3
2023-01-23T21:00:37.151Z,13.2
2023-01-23T21:05:42.986Z,12.8
2023-01-23T21:10:47.027Z,13
2023-01-23T21:15:50.744Z,13.4
2023-01-23T21:20:54.873Z,10.8
2023-01-23T21:25:57.023Z,11.2
2023-01-23T21:30:59.376Z,13.3
2023-01-23T21:36:02.184Z,27.7
2023-01-23T21:41:04.453Z,11
2023-01-23T21:46:06.931Z,11
2023-01-23T21:51:09.576Z,11.9
2023-01-23T21:56:11.818Z,12.3
2023-01-23T22:01:14.047Z,10.5
2023-01-23T22:06:16.291Z,10.6
2023-01-23T22:16:45.518Z,10.6
2023-01-23T22:21:32.361Z,11.6
2023-01-23T22:26:34.485Z,13.1
2023-01-23T22:31:36.767Z,12.5
2023-01-23T22:36:39.740Z,11.7
2023-01-23T22:41:41.985Z,12.7
2023-01-23T22:46:44.266Z,13.9
2023-01-23T22:51:46.650Z,11.7
2023-01-23T22:56:48.827Z,11.3
2023-01-23T23:01:51.394Z,10.7
2023-01-23T23:06:53.665Z,12.3
2023-01-23T23:11:56.090Z,10.6
2023-01-23T23:16:58.224Z,10.6
2023-01-23T23:27:02.751Z,11.2
2023-01-23T23:32:05.116Z,12.4
2023-01-23T23:37:08.460Z,12.9
2023-01-23T23:42:10.691Z,15.6
2023-01-23T23:47:12.816Z,11.4
2023-01-23T23:52:14.942Z,10.9
2023-01-23T23:57:16.963Z,14
